createdAt,value
2018-11-06T00:00:16.327Z,43.90
2018-11-06T00:02:45.972Z,47.73
2018-11-06T00:05:16.364Z,45.03
2018-11-06T00:07:45.788Z,46.20
2018-11-06T00:10:14.646Z,46.20
2018-11-06T00:12:43.559Z,46.30
2018-11-06T00:15:12.576Z,54.47
2018-11-06T00:17:41.494Z,46.37
2018-11-06T00:20:12.434Z,48.27
2018-11-06T00:22:41.450Z,44.27
2018-11-06T00:25:11.471Z,48.33
2018-11-06T00:27:41.258Z,48.83
2018-11-06T00:30:12.644Z,46.57
2018-11-06T00:32:42.071Z,52.20
2018-11-06T00:35:12.250Z,54.53
2018-11-06T00:37:42.503Z,45.83
2018-11-06T00:40:11.402Z,48.73
2018-11-06T00:42:41.002Z,46.87
2018-11-06T00:45:13.020Z,41.10
2018-11-06T00:47:43.131Z,47.37
2018-11-06T00:50:13.262Z,47.97
2018-11-06T00:52:42.976Z,48.73
2018-11-06T00:55:11.994Z,48.70
2018-11-06T00:57:43.067Z,48.10
2018-11-06T01:00:14.349Z,51.60
2018-11-06T01:02:43.243Z,51.53
2018-11-06T01:05:13.855Z,51.30
2018-11-06T01:07:44.233Z,53.87
2018-11-06T01:10:13.524Z,42.63
2018-11-06T01:12:42.450Z,54.10
2018-11-06T01:15:12.660Z,51.87
2018-11-06T01:17:42.146Z,50.73
2018-11-06T01:20:13.960Z,50.53
2018-11-06T01:22:42.941Z,52.30
2018-11-06T01:25:12.340Z,47.70
2018-11-06T01:27:42.085Z,42.33
2018-11-06T01:30:16.283Z,44.03
2018-11-06T01:32:45.887Z,45.00
2018-11-06T01:35:15.437Z,52.03
2018-11-06T01:37:44.872Z,47.87
2018-11-06T01:40:15.799Z,47.57
2018-11-06T01:42:45.862Z,48.93
2018-11-06T01:45:16.646Z,54.33
2018-11-06T01:47:45.618Z,49.90
2018-11-06T01:50:15.681Z,51.10
2018-11-06T01:52:45.607Z,51.70
2018-11-06T01:55:14.556Z,47.80
2018-11-06T01:57:43.417Z,44.93
2018-11-06T02:00:15.618Z,47.33
2018-11-06T02:02:45.427Z,44.67
2018-11-06T02:05:16.461Z,50.33
2018-11-06T02:07:46.584Z,57.53
2018-11-06T02:10:16.066Z,48.03
2018-11-06T02:12:45.758Z,46.13
2018-11-06T02:15:14.611Z,40.50
2018-11-06T02:17:45.330Z,50.90
2018-11-06T02:20:14.991Z,51.33
2018-11-06T02:22:45.105Z,48.17
2018-11-06T02:25:14.451Z,45.57
2018-11-06T02:27:43.367Z,51.27
2018-11-06T02:30:14.146Z,42.80
2018-11-06T02:32:43.942Z,45.53
2018-11-06T02:35:12.929Z,40.73
2018-11-06T02:37:41.841Z,49.10
2018-11-06T02:40:14.802Z,49.53
2018-11-06T02:42:43.819Z,49.93
2018-11-06T02:45:13.982Z,52.60
2018-11-06T02:47:46.779Z,50.33
2018-11-06T02:50:15.905Z,57.20
2018-11-06T02:52:45.210Z,69.50
2018-11-06T02:55:14.566Z,63.43
2018-11-06T02:57:43.565Z,67.47
2018-11-06T03:00:18.447Z,62.43
2018-11-06T03:02:48.089Z,57.73
2018-11-06T03:05:16.958Z,59.00
2018-11-06T03:07:45.849Z,68.70
2018-11-06T03:10:15.434Z,67.33
2018-11-06T03:12:45.002Z,65.60
2018-11-06T03:15:14.794Z,66.07
2018-11-06T03:17:43.702Z,65.27
2018-11-06T03:20:13.335Z,68.10
2018-11-06T03:22:42.909Z,59.27
2018-11-06T03:25:13.178Z,68.10
2018-11-06T03:27:42.094Z,72.53
2018-11-06T03:30:13.553Z,68.60
2018-11-06T03:32:42.551Z,63.10
2018-11-06T03:35:12.505Z,77.10
2018-11-06T03:37:41.372Z,65.83
2018-11-06T03:40:10.871Z,64.70
2018-11-06T03:42:41.506Z,75.60
2018-11-06T03:45:11.092Z,72.10
2018-11-06T03:47:40.697Z,80.97
2018-11-06T03:50:10.907Z,77.40
2018-11-06T03:52:39.850Z,78.77
2018-11-06T03:55:08.870Z,76.07
2018-11-06T03:57:37.787Z,73.27
2018-11-06T04:00:08.895Z,65.27
2018-11-06T04:02:38.153Z,72.00
2018-11-06T04:05:07.463Z,65.30
2018-11-06T04:07:37.183Z,77.77
2018-11-06T04:10:07.208Z,68.87
2018-11-06T04:12:36.092Z,64.33
2018-11-06T04:15:04.979Z,80.40
2018-11-06T04:17:33.928Z,73.47
2018-11-06T04:20:03.206Z,80.90
2018-11-06T04:22:32.587Z,87.07
2018-11-06T04:25:02.180Z,83.13
2018-11-06T04:27:31.693Z,78.43
2018-11-06T04:30:00.524Z,90.27
2018-11-06T04:32:29.492Z,70.67
2018-11-06T04:34:59.610Z,84.07
2018-11-06T04:37:28.573Z,74.43
2018-11-06T04:39:57.428Z,82.73
2018-11-06T04:42:26.401Z,74.53
2018-11-06T04:44:55.286Z,79.97
2018-11-06T04:47:24.116Z,70.87
2018-11-06T04:49:53.282Z,75.60
2018-11-06T04:52:22.108Z,72.87
2018-11-06T04:54:51.063Z,70.93
2018-11-06T04:57:19.926Z,69.47
2018-11-06T04:59:48.950Z,61.43
2018-11-06T05:02:17.960Z,56.20
2018-11-06T05:04:46.902Z,58.40
2018-11-06T05:07:15.722Z,64.37
2018-11-06T05:09:44.571Z,63.93
2018-11-06T05:12:12.855Z,56.83
2018-11-06T05:14:41.101Z,56.93
2018-11-06T05:17:09.362Z,53.53
2018-11-06T05:19:38.143Z,59.80
2018-11-06T05:22:06.915Z,50.90
2018-11-06T05:24:35.234Z,57.87
2018-11-06T05:27:04.189Z,63.03
2018-11-06T05:29:32.527Z,55.87
2018-11-06T05:32:00.832Z,55.10
2018-11-06T05:34:33.516Z,64.27
2018-11-06T05:37:01.738Z,72.77
2018-11-06T05:39:29.984Z,61.43
2018-11-06T05:41:58.197Z,66.10
2018-11-06T05:44:26.396Z,64.67
2018-11-06T05:46:54.647Z,55.17
2018-11-06T05:49:22.900Z,56.73
2018-11-06T05:51:51.124Z,63.77
2018-11-06T05:54:19.395Z,57.17
2018-11-06T05:56:47.625Z,59.10
2018-11-06T05:59:15.829Z,59.23
2018-11-06T06:01:44.658Z,54.07
2018-11-06T06:04:12.970Z,55.27
2018-11-06T06:06:41.252Z,58.33
2018-11-06T06:09:09.543Z,60.83
2018-11-06T06:11:37.831Z,56.20
2018-11-06T06:14:06.121Z,50.87
2018-11-06T06:16:34.471Z,49.00
2018-11-06T06:19:02.679Z,62.07
2018-11-06T06:21:31.057Z,48.73
2018-11-06T06:23:59.356Z,57.87
2018-11-06T06:26:27.594Z,50.77
2018-11-06T06:28:55.868Z,57.60
2018-11-06T06:31:24.114Z,61.33
2018-11-06T06:33:52.648Z,64.47
2018-11-06T06:36:21.166Z,55.53
2018-11-06T06:38:49.578Z,63.50
2018-11-06T06:41:18.790Z,57.23
2018-11-06T06:43:47.051Z,59.33
2018-11-06T06:46:15.325Z,60.27
2018-11-06T06:48:43.617Z,62.27
2018-11-06T06:51:11.884Z,52.50
2018-11-06T06:53:40.567Z,53.40
2018-11-06T06:56:08.860Z,53.73
2018-11-06T06:58:37.257Z,46.50
2018-11-06T07:01:06.712Z,56.97
2018-11-06T07:03:34.974Z,54.17
2018-11-06T07:06:03.240Z,51.50
2018-11-06T07:08:31.557Z,51.13
2018-11-06T07:10:59.924Z,49.47
2018-11-06T07:13:28.188Z,50.70
2018-11-06T07:15:56.467Z,49.27
2018-11-06T07:18:24.757Z,43.17
2018-11-06T07:20:53.011Z,49.13
2018-11-06T07:23:21.257Z,49.33
2018-11-06T07:25:49.519Z,52.67
2018-11-06T07:28:18.490Z,44.77
2018-11-06T07:30:46.766Z,49.93
2018-11-06T07:33:15.081Z,47.33
2018-11-06T07:35:43.523Z,47.00
2018-11-06T07:38:11.560Z,56.00
2018-11-06T07:40:39.855Z,52.47
2018-11-06T07:43:08.047Z,55.87
2018-11-06T07:45:36.288Z,52.83
2018-11-06T07:48:04.727Z,55.23
2018-11-06T07:50:33.072Z,55.70
2018-11-06T07:53:01.221Z,51.90
2018-11-06T07:55:29.611Z,57.60
2018-11-06T07:57:57.797Z,42.77
2018-11-06T08:00:26.572Z,47.63
2018-11-06T08:02:54.845Z,49.47
2018-11-06T08:05:23.165Z,46.53
2018-11-06T08:07:51.893Z,50.83
2018-11-06T08:10:21.244Z,43.90
2018-11-06T08:12:52.467Z,47.83
2018-11-06T08:15:20.762Z,45.87
2018-11-06T08:17:49.169Z,45.63
2018-11-06T08:20:17.644Z,44.00
2018-11-06T08:22:45.875Z,39.50
2018-11-06T08:25:15.348Z,45.23
2018-11-06T08:27:44.379Z,42.03
2018-11-06T08:30:13.071Z,38.93
2018-11-06T08:32:41.693Z,40.83
2018-11-06T08:35:12.582Z,36.67
2018-11-06T08:37:41.040Z,35.87
2018-11-06T08:40:10.183Z,37.87
2018-11-06T08:42:38.515Z,40.47
2018-11-06T08:45:08.344Z,37.43
2018-11-06T08:47:36.653Z,34.17
2018-11-06T08:50:05.720Z,33.10
2018-11-06T08:52:33.949Z,32.93
2018-11-06T08:55:02.924Z,34.30
2018-11-06T08:57:31.419Z,34.77
2018-11-06T08:59:59.915Z,35.13
2018-11-06T09:02:28.401Z,34.77
2018-11-06T09:04:56.627Z,31.97
2018-11-06T09:07:24.994Z,30.83
2018-11-06T09:09:53.285Z,31.23
2018-11-06T09:12:21.551Z,34.43
2018-11-06T09:14:49.792Z,33.23
2018-11-06T09:17:18.100Z,24.57
2018-11-06T09:19:46.336Z,42.63
2018-11-06T09:22:14.684Z,34.30
2018-11-06T09:24:43.044Z,31.03
2018-11-06T09:27:11.316Z,30.90
2018-11-06T09:29:39.637Z,25.60
2018-11-06T09:32:07.886Z,30.17
2018-11-06T09:34:36.168Z,24.20
2018-11-06T09:37:04.472Z,23.10
2018-11-06T09:39:32.745Z,22.17
2018-11-06T09:42:01.012Z,29.60
2018-11-06T09:44:30.106Z,26.10
2018-11-06T09:46:58.379Z,27.83
2018-11-06T09:49:26.721Z,31.43
2018-11-06T09:51:55.018Z,29.50
2018-11-06T09:54:23.440Z,28.60
2018-11-06T09:56:51.675Z,26.30
2018-11-06T09:59:19.988Z,27.87
2018-11-06T10:01:48.252Z,25.97
2018-11-06T10:04:16.631Z,28.97
2018-11-06T10:06:45.017Z,31.67
2018-11-06T10:09:13.162Z,24.13
2018-11-06T10:11:41.401Z,24.47
2018-11-06T10:14:09.736Z,26.03
2018-11-06T10:16:38.469Z,22.90
2018-11-06T10:19:06.781Z,26.33
2018-11-06T10:21:35.044Z,27.27
2018-11-06T10:24:03.346Z,34.90
2018-11-06T10:26:31.619Z,26.50
2018-11-06T10:28:59.888Z,23.70
2018-11-06T10:31:28.143Z,26.50
2018-11-06T10:33:56.498Z,20.10
2018-11-06T10:36:24.762Z,20.53
2018-11-06T10:38:53.014Z,24.33
2018-11-06T10:41:21.388Z,21.90
2018-11-06T10:43:49.656Z,22.20
2018-11-06T10:46:17.920Z,27.67
2018-11-06T10:48:46.178Z,23.83
2018-11-06T10:51:14.430Z,24.53
2018-11-06T10:53:42.709Z,20.93
2018-11-06T10:56:10.949Z,20.73
2018-11-06T10:58:39.362Z,23.53
2018-11-06T11:01:12.868Z,26.07
2018-11-06T11:03:46.605Z,21.77
2018-11-06T11:06:14.889Z,24.83
2018-11-06T11:08:43.154Z,20.07
2018-11-06T11:11:11.602Z,22.50
2018-11-06T11:13:39.851Z,20.00
2018-11-06T11:16:08.272Z,21.57
2018-11-06T11:18:36.512Z,19.13
2018-11-06T11:21:05.113Z,21.13
2018-11-06T11:23:33.403Z,20.30
2018-11-06T11:26:18.766Z,19.43
2018-11-06T11:28:47.066Z,24.03
2018-11-06T11:31:15.320Z,22.57
2018-11-06T11:33:43.635Z,20.53
2018-11-06T11:36:11.970Z,17.30
2018-11-06T11:38:41.081Z,19.23
2018-11-06T11:41:09.652Z,21.43
2018-11-06T11:43:38.050Z,17.50
2018-11-06T11:46:06.350Z,21.33
2018-11-06T11:48:34.608Z,19.47
2018-11-06T11:51:02.864Z,20.07
2018-11-06T11:53:31.713Z,16.13
2018-11-06T11:56:00.058Z,16.07
2018-11-06T11:58:28.308Z,19.90
2018-11-06T12:00:56.744Z,14.83
2018-11-06T12:03:24.994Z,19.70
2018-11-06T12:05:53.357Z,17.40
2018-11-06T12:08:21.604Z,18.70
2018-11-06T12:10:49.966Z,19.10
2018-11-06T12:13:18.330Z,16.50
2018-11-06T12:15:46.594Z,18.40
2018-11-06T12:18:14.980Z,15.73
2018-11-06T12:20:44.751Z,16.00
2018-11-06T12:23:13.673Z,19.33
2018-11-06T12:25:42.024Z,16.63
2018-11-06T12:28:10.785Z,15.10
2018-11-06T12:30:39.048Z,15.00
2018-11-06T12:33:07.655Z,19.07
2018-11-06T12:35:35.929Z,14.23
2018-11-06T12:38:04.335Z,17.87
2018-11-06T12:40:32.616Z,16.70
2018-11-06T12:43:01.259Z,13.97
2018-11-06T12:45:29.488Z,13.63
2018-11-06T12:47:57.830Z,15.73
2018-11-06T12:50:26.254Z,15.13
2018-11-06T12:52:54.513Z,16.03
2018-11-06T12:55:22.793Z,19.80
2018-11-06T12:57:51.032Z,15.33
2018-11-06T13:00:20.582Z,15.80
2018-11-06T13:02:49.084Z,14.73
2018-11-06T13:05:17.402Z,15.60
2018-11-06T13:07:46.004Z,11.93
2018-11-06T13:10:14.910Z,13.17
2018-11-06T13:12:43.740Z,14.77
2018-11-06T13:15:12.143Z,13.97
2018-11-06T13:17:40.487Z,14.00
2018-11-06T13:20:11.736Z,15.43
2018-11-06T13:22:40.813Z,15.13
2018-11-06T13:25:10.730Z,14.07
2018-11-06T13:27:40.116Z,10.63
2018-11-06T13:30:10.493Z,9.87
2018-11-06T13:32:39.357Z,14.50
2018-11-06T13:35:08.014Z,12.30
2018-11-06T13:37:36.776Z,11.93
2018-11-06T13:40:06.813Z,12.10
2018-11-06T13:42:35.171Z,13.00
2018-11-06T13:45:03.940Z,14.40
2018-11-06T13:47:32.061Z,11.70
2018-11-06T13:50:00.304Z,9.33
2018-11-06T13:52:29.050Z,12.57
2018-11-06T13:54:57.344Z,12.63
2018-11-06T13:57:25.620Z,11.83
2018-11-06T13:59:53.877Z,12.57
2018-11-06T14:02:22.229Z,9.63
2018-11-06T14:04:51.272Z,10.03
2018-11-06T14:07:20.617Z,11.97
2018-11-06T14:09:49.602Z,12.57
2018-11-06T14:12:18.018Z,13.70
2018-11-06T14:14:46.329Z,10.57
2018-11-06T14:17:14.690Z,10.50
2018-11-06T14:19:44.784Z,16.03
2018-11-06T14:22:13.056Z,13.27
2018-11-06T14:24:42.347Z,11.23
2018-11-06T14:27:10.776Z,13.47
2018-11-06T14:29:39.885Z,10.53
2018-11-06T14:32:08.177Z,10.73
2018-11-06T14:34:36.526Z,8.30
2018-11-06T14:37:05.715Z,13.00
2018-11-06T14:39:34.008Z,10.40
2018-11-06T14:42:02.298Z,15.27
2018-11-06T14:44:30.515Z,11.10
2018-11-06T14:46:58.811Z,10.83
2018-11-06T14:49:27.310Z,10.63
2018-11-06T14:51:55.603Z,10.07
2018-11-06T14:54:24.039Z,11.83
2018-11-06T14:56:52.428Z,10.73
2018-11-06T14:59:20.692Z,11.37
2018-11-06T15:01:49.056Z,12.33
2018-11-06T15:04:17.341Z,11.83
2018-11-06T15:06:45.682Z,9.57
2018-11-06T15:09:14.009Z,9.50
2018-11-06T15:11:42.499Z,9.33
2018-11-06T15:14:14.271Z,11.63
2018-11-06T15:16:42.688Z,10.10
2018-11-06T15:19:10.970Z,11.03
2018-11-06T15:21:39.454Z,10.70
2018-11-06T15:24:07.787Z,9.63
2018-11-06T15:26:36.320Z,9.73
2018-11-06T15:29:04.619Z,11.47
2018-11-06T15:31:32.999Z,12.00
2018-11-06T15:34:01.670Z,12.90
2018-11-06T15:36:29.989Z,12.30
2018-11-06T15:38:58.282Z,19.40
2018-11-06T15:41:26.622Z,12.83
2018-11-06T15:43:55.778Z,13.23
2018-11-06T15:46:24.073Z,11.43
2018-11-06T15:48:52.436Z,15.47
2018-11-06T15:51:20.644Z,11.27
2018-11-06T15:53:48.898Z,10.17
2018-11-06T15:56:17.181Z,11.10
2018-11-06T15:58:45.486Z,12.37
2018-11-06T16:01:14.127Z,9.57
2018-11-06T16:03:42.486Z,14.53
2018-11-06T16:06:11.008Z,11.07
2018-11-06T16:08:39.536Z,13.23
2018-11-06T16:11:07.848Z,14.30
2018-11-06T16:13:36.953Z,13.30
2018-11-06T16:16:05.823Z,11.87
2018-11-06T16:18:34.856Z,10.93
2018-11-06T16:21:03.282Z,10.73
2018-11-06T16:23:31.676Z,13.60
2018-11-06T16:25:59.971Z,10.70
2018-11-06T16:28:28.383Z,11.23
2018-11-06T16:30:56.785Z,9.60
2018-11-06T16:33:25.216Z,12.73
2018-11-06T16:35:53.595Z,13.07
2018-11-06T16:38:21.951Z,12.07
2018-11-06T16:40:50.261Z,15.70
2018-11-06T16:43:18.656Z,12.13
2018-11-06T16:45:46.936Z,15.60
2018-11-06T16:48:15.666Z,15.60
2018-11-06T16:50:43.990Z,13.27
2018-11-06T16:53:12.265Z,13.70
2018-11-06T16:55:40.544Z,12.13
2018-11-06T16:58:08.866Z,12.93
2018-11-06T17:00:37.211Z,9.47
2018-11-06T17:03:05.610Z,17.77
2018-11-06T17:05:33.838Z,12.10
2018-11-06T17:08:02.114Z,11.17
2018-11-06T17:10:30.423Z,9.53
2018-11-06T17:12:58.699Z,11.97
2018-11-06T17:15:27.135Z,9.97
2018-11-06T17:17:55.473Z,10.70
2018-11-06T17:20:24.840Z,11.13
2018-11-06T17:22:53.257Z,11.03
2018-11-06T17:25:22.689Z,11.40
2018-11-06T17:27:51.232Z,12.33
2018-11-06T17:30:19.912Z,17.10
2018-11-06T17:32:48.388Z,13.20
2018-11-06T17:35:18.043Z,12.13
2018-11-06T17:37:46.531Z,11.83
2018-11-06T17:40:17.015Z,14.87
2018-11-06T17:42:46.289Z,13.70
2018-11-06T17:45:15.873Z,18.50
2018-11-06T17:47:44.264Z,12.77
2018-11-06T17:50:14.389Z,13.83
2018-11-06T17:52:42.716Z,14.60
2018-11-06T17:55:12.497Z,12.60
2018-11-06T17:57:41.385Z,15.20
2018-11-06T18:00:18.492Z,11.57
2018-11-06T18:02:47.104Z,12.47
2018-11-06T18:05:16.448Z,15.13
2018-11-06T18:07:44.991Z,12.63
2018-11-06T18:10:14.762Z,11.63
2018-11-06T18:12:43.181Z,13.90
2018-11-06T18:15:12.159Z,14.23
2018-11-06T18:17:41.159Z,9.40
2018-11-06T18:20:10.424Z,11.73
2018-11-06T18:22:39.091Z,9.37
2018-11-06T18:25:07.802Z,11.03
2018-11-06T18:27:36.075Z,12.13
2018-11-06T18:30:06.141Z,15.27
2018-11-06T18:32:34.609Z,12.20
2018-11-06T18:35:03.075Z,12.17
2018-11-06T18:37:31.502Z,13.33
2018-11-06T18:39:59.752Z,12.63
2018-11-06T18:42:28.495Z,13.47
2018-11-06T18:44:57.087Z,16.50
2018-11-06T18:47:25.346Z,14.53
2018-11-06T18:49:53.647Z,16.37
2018-11-06T18:52:23.338Z,13.93
2018-11-06T18:54:51.783Z,12.03
2018-11-06T18:57:20.061Z,16.43
2018-11-06T18:59:48.595Z,16.83
2018-11-06T19:02:16.886Z,14.30
2018-11-06T19:04:45.421Z,16.27
2018-11-06T19:07:13.756Z,16.33
2018-11-06T19:09:42.187Z,14.83
2018-11-06T19:12:11.677Z,12.93
2018-11-06T19:14:39.904Z,11.67
2018-11-06T19:17:10.163Z,14.10
2018-11-06T19:19:38.542Z,13.43
2018-11-06T19:22:06.804Z,14.30
2018-11-06T19:24:35.099Z,10.97
2018-11-06T19:27:03.358Z,12.27
2018-11-06T19:29:31.721Z,15.93
2018-11-06T19:31:59.997Z,13.90
2018-11-06T19:34:28.250Z,13.23
2018-11-06T19:36:56.501Z,13.03
2018-11-06T19:39:24.802Z,12.77
2018-11-06T19:41:53.100Z,13.87
2018-11-06T19:44:21.337Z,12.33
2018-11-06T19:46:49.574Z,13.90
2018-11-06T19:49:17.935Z,13.47
2018-11-06T19:51:46.327Z,12.13
2018-11-06T19:54:14.647Z,16.37
2018-11-06T19:56:43.790Z,14.97
2018-11-06T19:59:12.700Z,10.03
2018-11-06T20:01:40.972Z,14.23
2018-11-06T20:04:10.109Z,14.60
2018-11-06T20:06:38.363Z,14.57
2018-11-06T20:09:08.552Z,14.37
2018-11-06T20:11:37.526Z,15.37
2018-11-06T20:14:05.944Z,17.27
2018-11-06T20:16:34.300Z,15.63
2018-11-06T20:19:02.585Z,20.00
2018-11-06T20:21:30.965Z,14.50
2018-11-06T20:23:59.229Z,11.87
2018-11-06T20:26:27.606Z,14.03
2018-11-06T20:28:56.011Z,14.90
2018-11-06T20:31:24.314Z,17.70
2018-11-06T20:33:52.672Z,13.13
2018-11-06T20:36:21.595Z,13.00
2018-11-06T20:38:50.642Z,13.80
2018-11-06T20:41:18.923Z,14.40
2018-11-06T20:43:47.252Z,17.53
2018-11-06T20:46:15.621Z,16.47
2018-11-06T20:48:43.938Z,16.37
2018-11-06T20:51:12.235Z,15.27
2018-11-06T20:53:40.640Z,14.43
2018-11-06T20:56:08.925Z,19.00
2018-11-06T20:58:37.140Z,16.83
2018-11-06T21:01:06.036Z,14.23
2018-11-06T21:03:34.275Z,16.07
2018-11-06T21:06:03.575Z,18.47
2018-11-06T21:08:32.545Z,18.27
2018-11-06T21:11:00.897Z,15.70
2018-11-06T21:13:29.118Z,18.93
2018-11-06T21:15:57.316Z,18.07
2018-11-06T21:18:25.892Z,18.00
2018-11-06T21:20:54.020Z,16.50
2018-11-06T21:23:23.423Z,19.93
2018-11-06T21:25:51.966Z,17.47
2018-11-06T21:28:20.096Z,15.37
2018-11-06T21:30:48.370Z,18.97
2018-11-06T21:33:17.286Z,17.90
2018-11-06T21:35:46.528Z,13.30
2018-11-06T21:38:14.835Z,15.73
2018-11-06T21:40:43.103Z,15.70
2018-11-06T21:43:11.485Z,17.00
2018-11-06T21:45:40.271Z,13.37
2018-11-06T21:48:08.551Z,16.40
2018-11-06T21:50:36.919Z,18.53
2018-11-06T21:53:05.297Z,19.13
2018-11-06T21:55:33.588Z,18.93
2018-11-06T21:58:02.375Z,18.77
2018-11-06T22:00:30.797Z,17.47
2018-11-06T22:02:58.924Z,20.30
2018-11-06T22:05:27.222Z,15.50
2018-11-06T22:07:55.526Z,16.00
2018-11-06T22:10:23.829Z,18.97
2018-11-06T22:12:52.826Z,18.93
2018-11-06T22:15:21.160Z,16.13
2018-11-06T22:17:49.403Z,14.33
2018-11-06T22:20:18.779Z,13.93
2018-11-06T22:22:47.554Z,15.00
2018-11-06T22:25:15.908Z,11.83
2018-11-06T22:27:44.359Z,13.03
2018-11-06T22:30:14.807Z,13.30
2018-11-06T22:32:43.592Z,16.83
2018-11-06T22:35:13.020Z,20.17
2018-11-06T22:37:42.397Z,17.37
2018-11-06T22:40:12.204Z,15.77
2018-11-06T22:42:40.580Z,13.70
2018-11-06T22:45:10.707Z,16.40
2018-11-06T22:47:39.039Z,18.43
2018-11-06T22:50:08.707Z,16.83
2018-11-06T22:52:36.971Z,12.50
2018-11-06T22:55:05.745Z,14.77
2018-11-06T22:57:34.028Z,15.30
2018-11-06T23:00:02.304Z,11.83
2018-11-06T23:02:30.635Z,14.77
2018-11-06T23:04:58.954Z,14.60
2018-11-06T23:07:32.645Z,13.50
2018-11-06T23:10:00.899Z,11.70
2018-11-06T23:12:29.119Z,12.50
2018-11-06T23:14:58.270Z,14.73
2018-11-06T23:17:26.510Z,13.07
2018-11-06T23:19:54.764Z,10.70
2018-11-06T23:22:23.092Z,10.03
2018-11-06T23:24:51.346Z,11.07
2018-11-06T23:27:19.609Z,13.83
2018-11-06T23:29:47.863Z,9.83
2018-11-06T23:32:16.198Z,11.77
2018-11-06T23:34:44.465Z,11.87
2018-11-06T23:37:12.721Z,11.47
2018-11-06T23:39:40.988Z,12.93
2018-11-06T23:42:09.218Z,10.83
2018-11-06T23:44:37.476Z,12.57
2018-11-06T23:47:05.719Z,11.33
2018-11-06T23:49:34.018Z,10.30
